FPO8SN EIDW-LFPG
Flight info
| Callsign | FPO8SN |
|---|---|
| Flight time | N/A |
| Altitude | 39000 |
| Route | ENDEQ3J ENDEQ Q36 EPOXI L15 KEPAD L151 MID Y803 SFD/N0379F250 UM605 BIBAX |
| Aircraft | B738/M-SDE2E3FGHIRWXY/LB1 |
Departure
| Time | N/A |
|---|---|
| Airport | Dublin Airport (EIDW) |
Arrival
| Time | 2026-05-07 08:44 |
|---|---|
| Airport | Charles de Gaulle International Airport (LFPG) |
| Time | Latitude | Longitude | Altitude | Speed | Heading |
|---|---|---|---|---|---|
| 2026-05-07 07:57 | 51.70260 | -1.28955 | 39075 ft | 462 kts | 148° |
| 2026-05-07 07:57 | 51.67566 | -1.26142 | 39077 ft | 462 kts | 148° |
| 2026-05-07 07:58 | 51.62171 | -1.20520 | 39075 ft | 462 kts | 148° |
| 2026-05-07 07:58 | 51.56771 | -1.14910 | 39076 ft | 462 kts | 148° |
| 2026-05-07 07:59 | 51.51374 | -1.09318 | 39076 ft | 462 kts | 148° |
| 2026-05-07 07:59 | 51.45967 | -1.03735 | 39076 ft | 462 kts | 148° |
| 2026-05-07 08:00 | 51.40554 | -0.98185 | 39075 ft | 462 kts | 148° |
| 2026-05-07 08:00 | 51.36046 | -0.93577 | 39078 ft | 462 kts | 148° |
| 2026-05-07 08:01 | 51.30622 | -0.88044 | 39075 ft | 463 kts | 148° |
| 2026-05-07 08:01 | 51.25193 | -0.82518 | 39076 ft | 463 kts | 148° |
| 2026-05-07 08:02 | 51.19759 | -0.77003 | 39076 ft | 463 kts | 148° |
| 2026-05-07 08:02 | 51.14320 | -0.71497 | 39078 ft | 463 kts | 148° |
| 2026-05-07 08:03 | 51.08881 | -0.65997 | 39075 ft | 464 kts | 147° |
| 2026-05-07 08:03 | 51.05777 | -0.61973 | 39071 ft | 464 kts | 135° |
| 2026-05-07 08:04 | 51.01873 | -0.53824 | 39088 ft | 465 kts | 122° |
| 2026-05-07 08:04 | 50.98530 | -0.45012 | 39074 ft | 466 kts | 121° |
| 2026-05-07 08:05 | 50.95166 | -0.36208 | 39072 ft | 467 kts | 122° |
| 2026-05-07 08:05 | 50.91757 | -0.27457 | 39078 ft | 467 kts | 122° |
| 2026-05-07 08:06 | 50.88325 | -0.18720 | 39080 ft | 467 kts | 122° |
| 2026-05-07 08:06 | 50.84884 | -0.09986 | 39073 ft | 468 kts | 122° |
| 2026-05-07 08:07 | 50.81438 | -0.01260 | 39074 ft | 468 kts | 122° |
| 2026-05-07 08:07 | 50.78004 | 0.07408 | 39056 ft | 458 kts | 123° |
| 2026-05-07 08:08 | 50.74023 | 0.15058 | 39063 ft | 448 kts | 141° |
| 2026-05-07 08:08 | 50.69784 | 0.20411 | 38675 ft | 454 kts | 143° |
| 2026-05-07 08:08 | 50.67299 | 0.23490 | 38109 ft | 453 kts | 142° |
| 2026-05-07 08:09 | 50.64838 | 0.26570 | 37547 ft | 451 kts | 142° |
| 2026-05-07 08:09 | 50.62399 | 0.29657 | 36964 ft | 449 kts | 142° |
| 2026-05-07 08:09 | 50.59969 | 0.32746 | 36395 ft | 448 kts | 142° |
| 2026-05-07 08:09 | 50.57546 | 0.35826 | 35810 ft | 448 kts | 142° |
| 2026-05-07 08:10 | 50.55123 | 0.38907 | 35181 ft | 448 kts | 142° |
| 2026-05-07 08:10 | 50.52695 | 0.41996 | 34551 ft | 449 kts | 142° |
| 2026-05-07 08:10 | 50.50265 | 0.45085 | 33846 ft | 451 kts | 142° |
| 2026-05-07 08:10 | 50.47822 | 0.48183 | 33096 ft | 452 kts | 142° |
| 2026-05-07 08:11 | 50.45375 | 0.51279 | 32384 ft | 452 kts | 142° |
| 2026-05-07 08:11 | 50.42937 | 0.54356 | 31913 ft | 447 kts | 142° |
| 2026-05-07 08:11 | 50.40528 | 0.57394 | 31398 ft | 443 kts | 142° |
| 2026-05-07 08:11 | 50.38138 | 0.60405 | 30913 ft | 439 kts | 143° |
| 2026-05-07 08:12 | 50.35769 | 0.63383 | 30443 ft | 435 kts | 143° |
| 2026-05-07 08:12 | 50.33419 | 0.66337 | 29939 ft | 431 kts | 143° |
| 2026-05-07 08:12 | 50.31091 | 0.69264 | 29409 ft | 427 kts | 143° |
| 2026-05-07 08:12 | 50.28788 | 0.72160 | 28929 ft | 422 kts | 143° |
| 2026-05-07 08:13 | 50.26511 | 0.75018 | 28447 ft | 417 kts | 143° |
| 2026-05-07 08:13 | 50.24256 | 0.77846 | 27979 ft | 414 kts | 143° |
| 2026-05-07 08:13 | 50.22000 | 0.80672 | 27495 ft | 418 kts | 143° |
| 2026-05-07 08:13 | 50.19727 | 0.83514 | 26999 ft | 417 kts | 143° |
| 2026-05-07 08:14 | 50.17474 | 0.86325 | 26521 ft | 413 kts | 143° |
| 2026-05-07 08:14 | 50.15235 | 0.89108 | 26045 ft | 409 kts | 143° |
| 2026-05-07 08:14 | 50.13015 | 0.91863 | 25579 ft | 406 kts | 143° |
| 2026-05-07 08:14 | 50.10814 | 0.94592 | 25116 ft | 402 kts | 143° |
| 2026-05-07 08:15 | 50.08636 | 0.97290 | 24662 ft | 399 kts | 142° |
| 2026-05-07 08:15 | 50.06463 | 0.99975 | 24202 ft | 397 kts | 143° |
| 2026-05-07 08:15 | 50.04170 | 1.02298 | 23816 ft | 391 kts | 153° |
| 2026-05-07 08:15 | 50.01752 | 1.04170 | 23445 ft | 386 kts | 156° |
| 2026-05-07 08:16 | 49.99323 | 1.05931 | 23060 ft | 387 kts | 156° |
| 2026-05-07 08:16 | 49.96868 | 1.07688 | 22691 ft | 390 kts | 156° |
| 2026-05-07 08:16 | 49.94402 | 1.09468 | 22329 ft | 391 kts | 156° |
| 2026-05-07 08:16 | 49.91952 | 1.11261 | 21962 ft | 388 kts | 156° |
| 2026-05-07 08:17 | 49.89531 | 1.13050 | 21631 ft | 385 kts | 155° |
| 2026-05-07 08:17 | 49.87122 | 1.14841 | 21275 ft | 383 kts | 155° |
| 2026-05-07 08:17 | 49.84730 | 1.16626 | 20937 ft | 381 kts | 155° |
| 2026-05-07 08:17 | 49.82353 | 1.18401 | 20600 ft | 379 kts | 155° |
| 2026-05-07 08:18 | 49.79982 | 1.20171 | 20262 ft | 377 kts | 155° |
| 2026-05-07 08:18 | 49.77619 | 1.21934 | 19927 ft | 376 kts | 155° |
| 2026-05-07 08:18 | 49.75267 | 1.23687 | 19590 ft | 375 kts | 155° |
| 2026-05-07 08:18 | 49.72922 | 1.25432 | 19257 ft | 374 kts | 155° |
| 2026-05-07 08:19 | 49.70581 | 1.27173 | 18923 ft | 373 kts | 155° |
| 2026-05-07 08:19 | 49.68250 | 1.28904 | 18593 ft | 371 kts | 155° |
| 2026-05-07 08:19 | 49.65925 | 1.30629 | 18245 ft | 370 kts | 155° |
| 2026-05-07 08:19 | 49.63614 | 1.32341 | 17873 ft | 368 kts | 155° |
| 2026-05-07 08:20 | 49.61315 | 1.34044 | 17522 ft | 365 kts | 155° |
| 2026-05-07 08:20 | 49.59031 | 1.35733 | 17185 ft | 363 kts | 155° |
| 2026-05-07 08:20 | 49.56763 | 1.37408 | 16853 ft | 360 kts | 155° |
| 2026-05-07 08:20 | 49.54510 | 1.39071 | 16534 ft | 358 kts | 155° |
| 2026-05-07 08:21 | 49.52269 | 1.40723 | 16212 ft | 356 kts | 155° |
| 2026-05-07 08:21 | 49.50041 | 1.42364 | 15894 ft | 354 kts | 155° |
| 2026-05-07 08:21 | 49.47825 | 1.43995 | 15583 ft | 353 kts | 155° |
| 2026-05-07 08:21 | 49.45612 | 1.45621 | 15264 ft | 352 kts | 155° |
| 2026-05-07 08:22 | 49.43409 | 1.47239 | 14956 ft | 350 kts | 155° |
| 2026-05-07 08:22 | 49.41211 | 1.48852 | 14639 ft | 349 kts | 155° |
| 2026-05-07 08:22 | 49.39021 | 1.50458 | 14322 ft | 349 kts | 155° |
| 2026-05-07 08:22 | 49.36835 | 1.52059 | 14013 ft | 348 kts | 155° |
| 2026-05-07 08:23 | 49.34655 | 1.53652 | 13674 ft | 347 kts | 155° |
| 2026-05-07 08:23 | 49.32511 | 1.55324 | 13331 ft | 346 kts | 147° |
| 2026-05-07 08:23 | 49.30815 | 1.57900 | 13015 ft | 345 kts | 123° |
| 2026-05-07 08:23 | 49.29847 | 1.61216 | 12829 ft | 340 kts | 103° |
| 2026-05-07 08:24 | 49.29579 | 1.64774 | 12647 ft | 335 kts | 93° |
| 2026-05-07 08:24 | 49.29456 | 1.68340 | 12444 ft | 336 kts | 93° |
| 2026-05-07 08:24 | 49.29325 | 1.71932 | 12239 ft | 339 kts | 93° |
| 2026-05-07 08:24 | 49.29177 | 1.75530 | 12039 ft | 338 kts | 94° |
| 2026-05-07 08:25 | 49.29021 | 1.79104 | 11861 ft | 335 kts | 94° |
| 2026-05-07 08:25 | 49.28861 | 1.82659 | 11689 ft | 334 kts | 94° |
| 2026-05-07 08:25 | 49.28699 | 1.86193 | 11514 ft | 332 kts | 94° |
| 2026-05-07 08:25 | 49.28536 | 1.89718 | 11332 ft | 331 kts | 94° |
| 2026-05-07 08:26 | 49.28209 | 1.96743 | 10996 ft | 330 kts | 94° |
| 2026-05-07 08:26 | 49.28045 | 2.00236 | 10828 ft | 329 kts | 94° |
| 2026-05-07 08:26 | 49.27881 | 2.03728 | 10649 ft | 326 kts | 94° |
| 2026-05-07 08:27 | 49.27719 | 2.07145 | 10490 ft | 318 kts | 94° |
| 2026-05-07 08:27 | 49.27560 | 2.10476 | 10325 ft | 310 kts | 94° |
| 2026-05-07 08:27 | 49.27404 | 2.13732 | 10166 ft | 303 kts | 94° |
| 2026-05-07 08:27 | 49.27251 | 2.16907 | 10044 ft | 295 kts | 94° |
| 2026-05-07 08:28 | 49.27102 | 2.19966 | 10006 ft | 282 kts | 94° |
| 2026-05-07 08:28 | 49.26958 | 2.22933 | 9727 ft | 276 kts | 94° |
| 2026-05-07 08:28 | 49.26816 | 2.25830 | 9565 ft | 271 kts | 94° |
| 2026-05-07 08:28 | 49.26675 | 2.28702 | 9420 ft | 271 kts | 94° |
| 2026-05-07 08:29 | 49.26532 | 2.31594 | 9277 ft | 273 kts | 94° |
| 2026-05-07 08:29 | 49.26387 | 2.34501 | 9131 ft | 276 kts | 95° |
| 2026-05-07 08:29 | 49.26240 | 2.37433 | 8983 ft | 277 kts | 95° |
| 2026-05-07 08:29 | 49.26093 | 2.40370 | 8823 ft | 276 kts | 95° |
| 2026-05-07 08:30 | 49.25946 | 2.43297 | 8696 ft | 276 kts | 95° |
| 2026-05-07 08:30 | 49.25801 | 2.46204 | 8534 ft | 272 kts | 95° |
| 2026-05-07 08:30 | 49.25659 | 2.49086 | 8264 ft | 271 kts | 95° |
| 2026-05-07 08:30 | 49.25518 | 2.51954 | 8026 ft | 269 kts | 95° |
| 2026-05-07 08:31 | 49.25380 | 2.54801 | 7778 ft | 268 kts | 95° |
| 2026-05-07 08:31 | 49.25243 | 2.57638 | 7533 ft | 266 kts | 95° |
| 2026-05-07 08:31 | 49.25107 | 2.60453 | 7290 ft | 265 kts | 95° |
| 2026-05-07 08:31 | 49.24966 | 2.63262 | 7135 ft | 264 kts | 98° |
| 2026-05-07 08:32 | 49.24490 | 2.65972 | 7048 ft | 265 kts | 110° |
| 2026-05-07 08:32 | 49.23851 | 2.68604 | 6971 ft | 262 kts | 111° |
| 2026-05-07 08:32 | 49.23202 | 2.71192 | 6743 ft | 260 kts | 111° |
| 2026-05-07 08:32 | 49.22551 | 2.73770 | 6481 ft | 260 kts | 112° |
| 2026-05-07 08:33 | 49.21896 | 2.76343 | 6227 ft | 259 kts | 111° |
| 2026-05-07 08:33 | 49.21241 | 2.78901 | 5962 ft | 258 kts | 112° |
| 2026-05-07 08:33 | 49.20583 | 2.81453 | 5709 ft | 257 kts | 112° |
| 2026-05-07 08:33 | 49.19926 | 2.83984 | 5457 ft | 256 kts | 112° |
| 2026-05-07 08:34 | 49.19268 | 2.86511 | 5211 ft | 255 kts | 112° |
| 2026-05-07 08:34 | 49.18607 | 2.89031 | 5032 ft | 255 kts | 112° |
| 2026-05-07 08:34 | 49.17946 | 2.91537 | 4994 ft | 254 kts | 112° |
| 2026-05-07 08:34 | 49.17287 | 2.94026 | 4975 ft | 251 kts | 112° |
| 2026-05-07 08:35 | 49.16638 | 2.96479 | 4955 ft | 245 kts | 112° |
| 2026-05-07 08:35 | 49.16017 | 2.98822 | 4945 ft | 230 kts | 112° |
| 2026-05-07 08:35 | 49.15440 | 3.00997 | 4945 ft | 214 kts | 112° |
| 2026-05-07 08:35 | 49.14837 | 3.03015 | 4943 ft | 207 kts | 128° |
| 2026-05-07 08:36 | 49.13668 | 3.04190 | 4986 ft | 206 kts | 167° |
| 2026-05-07 08:36 | 49.12218 | 3.04333 | 4986 ft | 213 kts | 181° |
| 2026-05-07 08:36 | 49.10726 | 3.04276 | 4989 ft | 215 kts | 181° |
| 2026-05-07 08:36 | 49.09234 | 3.04203 | 4968 ft | 214 kts | 182° |
| 2026-05-07 08:37 | 49.07758 | 3.03980 | 4950 ft | 213 kts | 199° |
| 2026-05-07 08:37 | 49.06570 | 3.02727 | 4979 ft | 209 kts | 228° |
| 2026-05-07 08:37 | 49.05649 | 3.01020 | 4980 ft | 210 kts | 232° |
| 2026-05-07 08:37 | 49.05033 | 2.99026 | 4963 ft | 212 kts | 262° |
| 2026-05-07 08:38 | 49.04881 | 2.96768 | 4982 ft | 216 kts | 264° |
| 2026-05-07 08:38 | 49.04732 | 2.94485 | 4981 ft | 216 kts | 265° |
| 2026-05-07 08:38 | 49.04639 | 2.92214 | 4981 ft | 214 kts | 266° |
| 2026-05-07 08:38 | 49.04536 | 2.89955 | 4842 ft | 215 kts | 265° |
| 2026-05-07 08:39 | 49.04415 | 2.87682 | 4562 ft | 214 kts | 265° |
| 2026-05-07 08:39 | 49.04289 | 2.85449 | 4273 ft | 209 kts | 265° |
| 2026-05-07 08:39 | 49.04166 | 2.83266 | 3994 ft | 204 kts | 265° |
| 2026-05-07 08:39 | 49.04047 | 2.81179 | 3698 ft | 191 kts | 266° |
| 2026-05-07 08:40 | 49.03938 | 2.79230 | 3450 ft | 179 kts | 266° |
| 2026-05-07 08:40 | 49.03835 | 2.77400 | 3223 ft | 170 kts | 266° |
| 2026-05-07 08:40 | 49.03736 | 2.75615 | 3000 ft | 169 kts | 266° |
| 2026-05-07 08:40 | 49.03636 | 2.73830 | 2775 ft | 170 kts | 266° |
| 2026-05-07 08:41 | 49.03540 | 2.72092 | 2555 ft | 160 kts | 266° |
| 2026-05-07 08:41 | 49.03448 | 2.70438 | 2333 ft | 154 kts | 266° |
| 2026-05-07 08:41 | 49.03389 | 2.69366 | 2194 ft | 153 kts | 266° |
| 2026-05-07 08:41 | 49.03300 | 2.67759 | 1985 ft | 152 kts | 266° |
| 2026-05-07 08:42 | 49.03213 | 2.66153 | 1784 ft | 152 kts | 266° |
| 2026-05-07 08:42 | 49.03125 | 2.64551 | 1569 ft | 152 kts | 266° |
| 2026-05-07 08:42 | 49.03037 | 2.62945 | 1351 ft | 152 kts | 266° |
| 2026-05-07 08:42 | 49.02947 | 2.61347 | 1131 ft | 151 kts | 266° |
| 2026-05-07 08:43 | 49.02862 | 2.59756 | 925 ft | 151 kts | 266° |
| 2026-05-07 08:43 | 49.02779 | 2.58163 | 702 ft | 150 kts | 267° |
| 2026-05-07 08:43 | 49.02692 | 2.56602 | 473 ft | 146 kts | 267° |
| 2026-05-07 08:43 | 49.02617 | 2.55105 | 357 ft | 131 kts | 265° |
| 2026-05-07 08:44 | 49.02556 | 2.53950 | 354 ft | 88 kts | 266° |
| 2026-05-07 08:44 | 49.02518 | 2.53235 | 354 ft | 54 kts | 265° |
| 2026-05-07 08:44 | 49.02454 | 2.52775 | 361 ft | 37 kts | 234° |
| 2026-05-07 08:44 | 49.02268 | 2.52697 | 356 ft | 16 kts | 175° |
| 2026-05-07 08:45 | 49.02214 | 2.52704 | 358 ft | 18 kts | 175° |
| 2026-05-07 08:45 | 49.02051 | 2.52722 | 356 ft | 24 kts | 176° |
| 2026-05-07 08:45 | 49.01889 | 2.52741 | 355 ft | 23 kts | 175° |
| 2026-05-07 08:45 | 49.01821 | 2.52656 | 354 ft | 14 kts | 270° |
| 2026-05-07 08:46 | 49.01809 | 2.52490 | 354 ft | 20 kts | 263° |
| 2026-05-07 08:46 | 49.01801 | 2.52261 | 360 ft | 22 kts | 264° |
| 2026-05-07 08:46 | 49.01717 | 2.52090 | 356 ft | 21 kts | 235° |
| 2026-05-07 08:46 | 49.01691 | 2.51878 | 353 ft | 20 kts | 264° |
| 2026-05-07 08:47 | 49.01678 | 2.51668 | 354 ft | 20 kts | 265° |
| 2026-05-07 08:47 | 49.01669 | 2.51458 | 353 ft | 19 kts | 263° |
| 2026-05-07 08:47 | 49.01653 | 2.51257 | 352 ft | 19 kts | 263° |
| 2026-05-07 08:47 | 49.01641 | 2.51061 | 356 ft | 19 kts | 265° |
| 2026-05-07 08:48 | 49.01630 | 2.50845 | 353 ft | 22 kts | 265° |
| 2026-05-07 08:48 | 49.01621 | 2.50620 | 349 ft | 21 kts | 268° |
| 2026-05-07 08:48 | 49.01610 | 2.50402 | 349 ft | 20 kts | 263° |
| 2026-05-07 08:48 | 49.01598 | 2.50192 | 354 ft | 20 kts | 266° |
| 2026-05-07 08:49 | 49.01615 | 2.50106 | 357 ft | 6 kts | 334° |
| 2026-05-07 08:49 | 49.01626 | 2.50102 | 351 ft | 0 kts | 352° |